Portada
METAR-TAF:

METAR-TAF

Aeroports :

Townsville, Austràlia

latitud: 19-15S, longitud: 146-45E, altitud: 6 m

Observació

L'informe es va fer fa 19 minuts, a les 13:00 UTC
Vent 5 kt del Sud-Est
Temperatura 20°C
Humitat 83%
Pressió 1018 hPa
Visibilitat 10 km o més
Núvols disperses a una alçada de 2200 ft
Núvols disperses a una alçada de 3200 ft

METAR: YBTL 151300Z AUTO 13005KT 9999 // SCT022 SCT032 20/17 Q1018

Hora: 23:19 (13:19 UTC)

Pronòstic

L'informe es va fer fa 2 hores i 5 minuts, a les 11:14 UTC
Pronòstic vàlid del 15 a les 12 UTC al 16 a les 12 UTC
Vent 8 kt del Sud-Est
Visibilitat 10 km o més
Núvols disperses a una alçada de 2500 ft
A partir de les 16 a les 0100 UTC
Vent 14 kt del Est/Nord-Est
Visibilitat 10 km o més
Escasses núvols a una alçada de 4000 ft
A partir de les 16 a les 0800 UTC
Vent 8 kt del Sud-Est
Visibilitat 10 km o més
Núvols disperses a una alçada de 2500 ft

TAF: YBTL 151114Z 1512/1612 14008KT 9999 SCT025 FM160100 06014KT 9999 FEW040 FM160800 14008KT 9999 SCT025

Observacions i pronòstics meteorològics de més de 4000 aeroports (METAR i TAF).

Les estacions disponibles són els punts grocs i vermells al mapa.

Posi el ratolí al punt desitjat per veure el nom de l'estació.

Feu clic per veure les observacions i els pronòstics meteorològics.

Per canviar el mapa: feu clic els botons verds amb una creu de color negre per apropar; al botó verd amb un guió per allunyar la imatge; o en les fletxes verdes per a mapes adjacents.


METAR-TAF: